Highlands Peak, California Weather observations

Data are for observation ending at time listed.
 Day   Time    Ave.   Ave.  Ave.  Vector   Max.   Stn.    Total    Solar   Ave.  
  of    of     Air    Rel.  Wind   Wind    Wind   Baro.  Precip.   Rad.    Soil  
Year   Day     Temp.  Hum.  Speed  Dir.    Gust   Pres.                    Temp. 
2017   (PST)    F      %     mph   deg.    mph     mb.     in.     W/m2     F   
------------------------------------------------------------------------------
  23    3:50  99999.0   99999  99999.0   99999    99999.0   99999.0   99999.00   99999    99999.0
  23    4:00  99999.0   99999  99999.0   99999    99999.0   99999.0   99999.00   99999    99999.0
  23    4:10  99999.0   99999  99999.0   99999    99999.0   99999.0   99999.00   99999    99999.0
  23    4:20  99999.0   99999  99999.0   99999    99999.0   99999.0   99999.00   99999    99999.0
  23    4:30  99999.0   99999  99999.0   99999    99999.0   99999.0   99999.00   99999    99999.0
  23    4:40  99999.0   99999  99999.0   99999    99999.0   99999.0   99999.00   99999    99999.0
  23    4:50  99999.0   99999  99999.0   99999    99999.0   99999.0   99999.00   99999    99999.0
  23    5:00  99999.0   99999  99999.0   99999    99999.0   99999.0   99999.00   99999    99999.0
  23    5:10  99999.0   99999  99999.0   99999    99999.0   99999.0   99999.00   99999    99999.0
  23    5:20  99999.0   99999  99999.0   99999    99999.0   99999.0   99999.00   99999    99999.0
  23    5:30  99999.0   99999  99999.0   99999    99999.0   99999.0   99999.00   99999    99999.0
  23    5:40  99999.0   99999  99999.0   99999    99999.0   99999.0   99999.00   99999    99999.0
  23    5:50  99999.0   99999  99999.0   99999    99999.0   99999.0   99999.00   99999    99999.0
  23    6:00  99999.0   99999  99999.0   99999    99999.0   99999.0   99999.00   99999    99999.0
  23    6:10  99999.0   99999  99999.0   99999    99999.0   99999.0   99999.00   99999    99999.0
  23    6:20  99999.0   99999  99999.0   99999    99999.0   99999.0   99999.00   99999    99999.0
  23    6:30  99999.0   99999  99999.0   99999    99999.0   99999.0   99999.00   99999    99999.0
  23    6:40  99999.0   99999  99999.0   99999    99999.0   99999.0   99999.00   99999    99999.0
  23    6:50  99999.0   99999  99999.0   99999    99999.0   99999.0   99999.00   99999    99999.0
  23    7:00  99999.0   99999  99999.0   99999    99999.0   99999.0   99999.00   99999    99999.0
  23    7:10  99999.0   99999  99999.0   99999    99999.0   99999.0   99999.00   99999    99999.0
  23    7:20  99999.0   99999  99999.0   99999    99999.0   99999.0   99999.00   99999    99999.0
  23    7:30  99999.0   99999  99999.0   99999    99999.0   99999.0   99999.00   99999    99999.0
  23    7:40  99999.0   99999  99999.0   99999    99999.0   99999.0   99999.00   99999    99999.0
  23    7:50  99999.0   99999  99999.0   99999    99999.0   99999.0   99999.00   99999    99999.0
  23    8:00  99999.0   99999  99999.0   99999    99999.0   99999.0   99999.00   99999    99999.0
  23    8:10  99999.0   99999  99999.0   99999    99999.0   99999.0   99999.00   99999    99999.0
  23    8:20  99999.0   99999  99999.0   99999    99999.0   99999.0   99999.00   99999    99999.0
  23    8:30  99999.0   99999  99999.0   99999    99999.0   99999.0   99999.00   99999    99999.0
  23    8:40  99999.0   99999  99999.0   99999    99999.0   99999.0   99999.00   99999    99999.0
  23    8:50  99999.0   99999  99999.0   99999    99999.0   99999.0   99999.00   99999    99999.0
  23    9:00  99999.0   99999  99999.0   99999    99999.0   99999.0   99999.00   99999    99999.0
  23    9:10  99999.0   99999  99999.0   99999    99999.0   99999.0   99999.00   99999    99999.0
  23    9:20  99999.0   99999  99999.0   99999    99999.0   99999.0   99999.00   99999    99999.0
  23    9:30  99999.0   99999  99999.0   99999    99999.0   99999.0   99999.00   99999    99999.0
  23    9:40  99999.0   99999  99999.0   99999    99999.0   99999.0   99999.00   99999    99999.0
  23    9:50   34.5    98    4.6   345      7.2   924.0    0.00      92    39.2
  23   10:00   35.2    98    4.5   345      7.7   924.2    0.00     265    39.3
  23   10:10   37.1    98    5.1   330      9.3   924.5    0.00     626    39.2
  23   10:20   37.5    97    7.0   294     12.6   924.7    0.00     241    39.2
  23   10:30   37.2    97    5.8   294      9.9   924.7    0.00     282    39.3
  23   10:40   37.3    97    4.9   322      8.9   924.5    0.00     193    39.4
  23   10:50   37.3    94    5.7   332     11.0   924.3    0.00     276    39.5
  23   11:00   37.9    89    6.7   310     12.5   924.4    0.00     574    39.6
  23   11:10   39.0    87    8.0   298     12.9   924.6    0.00     690    39.7
  23   11:20   39.5    88   10.0   278     15.6   924.6    0.00     699    39.8
  23   11:30   39.6    89   10.8   273     15.6   924.6    0.00     509    40.1
  23   11:40   38.7    89   11.3   274     17.0   924.6    0.00     332    40.3
  23   11:50   38.1    92    8.7   281     13.9   924.6    0.00     131    40.5
  23   12:00   38.5    93    6.4   279     10.5   924.6    0.00     450    40.7
  23   12:10   39.3    92    5.3   276      8.8   924.5    0.00     536    40.8
  23   12:20   39.8    90    4.7   268      8.8   924.5    0.00     692    41.0
  23   12:30   40.1    88    6.3   268      9.8   924.4    0.00     619    41.2
  23   12:40   40.7    86   10.1   266     17.2   924.3    0.00     635    41.4
  23   12:50   39.4    89   11.7   290     20.3   924.3    0.00     277    41.7
  23   13:00   39.2    90    7.2   274     12.1   924.3    0.00     250    41.9
  23   13:10   39.9    90    5.6   286      9.9   924.1    0.00     310    42.1
  23   13:20   39.4    89    6.8   291     10.4   924.1    0.00     159    42.3
  23   13:30   38.4    89    7.1   294     12.1   924.1    0.00      87    42.4
  23   13:40   38.2    91    5.1   298      8.2   924.0    0.00     212    42.6
  23   13:50   38.6    90    5.5   306      9.3   924.1    0.00     386    42.7
  23   14:00   38.9    89    5.0   315     10.2   924.0    0.00     289    42.8
  23   14:10   38.9    88    5.0   299      8.0   924.0    0.00     219    42.9
  23   14:20   38.3    89    6.6   290     14.4   924.1    0.00      70    43.1
  23   14:30   38.0    90    7.8   298     13.6   924.1    0.00     325    43.2
  23   14:40   39.7    89   11.8   278     18.9   924.0    0.00     493    43.3
  23   14:50   40.1    90   10.4   281     15.4   924.1    0.00     384    43.5
  23   15:00   39.6    90   10.0   278     17.7   924.1    0.00     138    43.6
  23   15:10   38.6    92    8.6   287     12.7   924.1    0.00      70    43.6
  23   15:20   38.2    93    9.0   298     13.2   924.1    0.00     108    43.7
  23   15:30   39.2    90   10.2   290     16.7   924.1    0.00     348    43.8
  23   15:40   39.5    89   10.1   294     15.7   924.1    0.00     199    43.8
  23   15:50   39.8    90    8.2   296     12.9   924.2    0.00     322    43.9
  23   16:00   40.4    89    8.8   288     13.4   924.1    0.00     242    43.9
  23   16:10   39.9    90    8.5   272     13.2   924.1    0.00     176    44.0
  23   16:20   40.3    90   10.4   272     13.9   924.3    0.00     266    44.1
  23   16:30   40.0    89   10.3   272     14.8   924.4    0.00     155    44.1
  23   16:40   39.6    90    9.6   273     13.3   924.4    0.00     111    44.2
  23   16:50   38.9    91    8.4   279     12.6   924.5    0.00      57    44.2
  23   17:00   38.6    92    6.7   272      9.9   924.4    0.00      49    44.2
  23   17:10   38.5    93    8.2   265     12.2   924.5    0.00      35    44.2
  23   17:20   38.2    94    5.2   272      9.9   924.5    0.00      10    44.2
  23   17:30   37.9    94    5.1   269     11.4   924.5    0.00       3    44.2
  23   17:40   37.7    94    3.8   266      8.0   924.5    0.00       1    44.2
  23   17:50   37.7    94    4.1   279      7.0   924.5    0.00       0    44.1
  23   18:00   37.4    94    5.0   312      6.6   924.5    0.00       0    44.1
  23   18:10   37.3    95    5.0   332      6.7   924.5    0.00       0    44.0
  23   18:20   37.5    93    4.7   339      7.7   924.5    0.00       0    44.0
  23   18:30   37.5    87    5.8   337     11.2   924.6    0.00       0    43.9
  23   18:40   37.3    86    6.5   316      8.8   924.7    0.00       0    43.8
  23   18:50   37.1    84    5.7   319      9.3   924.7    0.00       0    43.8
  23   19:00   37.1    83    5.1   338      8.2   924.7    0.00       0    43.7
  23   19:10   37.2    83    4.3   345      7.8   924.7    0.00       0    43.6
  23   19:20   37.1    84    3.4     5      5.0   924.8    0.01       0    43.5
  23   19:30   37.2    84    3.8    10      6.4   924.8    0.00       0    43.4
  23   19:40   37.3    83    3.5    24      5.4   924.8    0.00       0    43.3
  23   19:50   37.1    84    3.6   338      5.7   924.9    0.00       0    43.2
  23   20:00   37.4    82    3.0     8      4.2   924.8    0.00       0    43.2
  23   20:10   37.4    80    3.1    37      4.5   924.8    0.00       0    43.1
  23   20:20   37.5    79    2.0    36      2.7   924.7    0.00       0    43.0
  23   20:30   37.1    82    3.0    35      8.6   924.8    0.01       0    42.9
  23   20:40   35.0    89    8.3   316     16.1   925.1    0.01       0    42.8
  23   20:50   33.6    93    4.9    55      8.2   925.2    0.02       0    42.7
  23   21:00   33.7    93    2.8    60      6.4   925.2    0.01       0    42.6
  23   21:10   34.3    91    2.2    48      6.6   925.1    0.01       0    42.5
  23   21:20   34.0    92    5.2    46      7.0   925.2    0.00       0    42.4
  23   21:30   34.0    93    6.8    42      7.7   925.2    0.00       0    42.3
  23   21:40   34.9    90    6.2    16      8.3   925.2    0.00       0    42.1
  23   21:50   35.7    86    6.5    10     10.7   925.2    0.00       0    42.0
  23   22:00   36.3    84    5.8     6      9.2   925.1    0.00       0    41.9
  23   22:10   36.4    84    5.1   358      7.5   925.1    0.00       0    41.8
  23   22:20   36.5    84    4.1   342      7.6   925.2    0.00       0    41.7
  23   22:30   36.2    87    5.7   318      9.4   925.3    0.00       0    41.7
  23   22:40   36.2    87    4.6   351      7.0   925.4    0.00       0    41.6
  23   22:50   36.4    86    6.4   331     15.7   925.4    0.01       0    41.5
  23   23:00   35.3    92    7.0   285     12.5   925.6    0.02       0    41.5
  23   23:10   34.4    95    3.1   302      5.0   925.6    0.01       0    41.4
  23   23:20   34.2    95    4.2    20      7.2   925.5    0.00       0    41.3
  23   23:30   34.1    95    6.8    62      9.5   925.3    0.00       0    41.3
  23   23:40   34.5    94    5.6    47      7.7   925.3    0.00       0    41.2
  23   23:50   35.6    88    5.4    46      8.6   925.3    0.00       0    41.1
  24    0:00   36.3    83    4.0    50      5.6   925.2    0.00       0    41.1
  24    0:10   36.2    84    3.4    63      5.0   925.1    0.00       0    41.0
  24    0:20   36.8    80    2.1   139      4.0   925.2    0.00       0    40.9
  24    0:30   36.9    83    4.7   193      7.1   925.2    0.00       0    40.9
  24    0:40   35.6    89    7.1   131      9.6   925.1    0.00       0    40.4
  24    0:50   35.4    89    6.3   109      8.7   925.0    0.00       0    99999.0
  24    1:00  99999.0   99999  99999.0   99999    99999.0   99999.0   99999.00   99999    99999.0
  24    1:10  99999.0   99999  99999.0   99999    99999.0   99999.0   99999.00   99999    99999.0
  24    1:20  99999.0   99999  99999.0   99999    99999.0   99999.0   99999.00   99999    99999.0
  24    1:30  99999.0   99999  99999.0   99999    99999.0   99999.0   99999.00   99999    99999.0
  24    1:40  99999.0   99999  99999.0   99999    99999.0   99999.0   99999.00   99999    99999.0
  24    1:50   35.8    84    5.5    67      7.0   924.9    0.00       0    40.5
  24    2:00   35.9    83    3.9    71      5.3   925.0    0.00       0    40.5
  24    2:10   36.4    81    2.4   120      3.5   925.0    0.00       0    40.4
  24    2:20   36.9    80    3.0   178      3.8   925.1    0.00       0    40.3
  24    2:30   36.8    81    2.7   183      3.4   925.1    0.00       0    40.3
  24    2:40   36.9    81    3.6   157      6.2   925.1    0.00       0    40.2
  24    2:50   36.5    83    4.7   126      6.9   925.1    0.00       0    39.9
  24    3:00   36.1    85    7.2   122      9.2   925.1    0.00       0    39.4
  24    3:10   35.9    87    6.9   122      8.6   925.2    0.00       0    39.3
  24    3:20   35.5    88    7.4   126     10.2   925.2    0.00       0    39.2
  24    3:30   35.7    87    6.3   128      7.8   925.2    0.00       0    39.3
  24    3:40   35.6    88    6.5   122      9.2   925.3    0.00       0    39.2

Return to Highlands Peak graphs page.


Western Regional Climate Center,wrcc@dri.edu